Time;durP1;ratioP1;P1;durP2;ratioP2;P2;SDS_P1;SDS_P2;PMS_P1;PMS_P2;Temp;Humidity;BMP_temperature;BMP_pressure;BME280_temperature;BME280_humidity;BME280_pressure;Samples;Min_cycle;Max_cycle;Signal;HPM_P1;HPM_P2
2022/01/15 00:02:22;;;;;;;15.10;4.13;;;6.70;99.90;;;;;;4955531;28;20049;-68
2022/01/15 00:04:51;;;;;;;15.57;4.53;;;6.70;99.90;;;;;;4950432;28;20059;-68
2022/01/15 00:07:17;;;;;;;18.52;4.70;;;6.70;99.90;;;;;;4930890;28;20038;-68
2022/01/15 00:09:44;;;;;;;20.00;4.57;;;6.60;99.90;;;;;;4952861;28;20058;-69
2022/01/15 00:12:10;;;;;;;20.02;4.43;;;6.60;99.90;;;;;;4960002;28;20403;-69
2022/01/15 00:14:41;;;;;;;14.57;4.85;;;6.70;99.90;;;;;;4960206;28;20050;-69
2022/01/15 00:17:14;;;;;;;16.40;5.22;;;6.60;99.90;;;;;;4947995;28;20040;-68
2022/01/15 00:19:43;;;;;;;16.73;5.13;;;6.70;99.90;;;;;;4950691;28;20046;-68
2022/01/15 00:22:15;;;;;;;16.10;5.75;;;6.60;99.90;;;;;;4950618;28;20370;-69
2022/01/15 00:24:42;;;;;;;23.67;6.00;;;6.60;99.90;;;;;;4963265;28;20308;-68
2022/01/15 00:27:09;;;;;;;13.38;4.93;;;6.60;99.90;;;;;;4959868;28;20503;-68
2022/01/15 00:29:35;;;;;;;14.02;4.47;;;6.60;99.90;;;;;;4958483;28;20043;-68
2022/01/15 00:32:02;;;;;;;14.10;5.13;;;6.60;99.90;;;;;;4963751;28;20058;-69
2022/01/15 00:34:28;;;;;;;14.35;4.82;;;6.60;99.90;;;;;;4957221;28;20166;-68
2022/01/15 00:36:54;;;;;;;11.75;4.40;;;6.70;99.90;;;;;;4964470;28;20531;-69
2022/01/15 00:39:20;;;;;;;12.63;5.47;;;6.60;99.90;;;;;;4957181;28;20030;-73
2022/01/15 00:41:46;;;;;;;12.68;4.82;;;6.60;99.90;;;;;;4963826;28;20516;-69
2022/01/15 00:44:12;;;;;;;8.83;4.10;;;6.60;99.90;;;;;;4959784;28;20046;-69
2022/01/15 00:46:37;;;;;;;13.57;4.37;;;6.60;99.90;;;;;;4961258;28;20218;-70
2022/01/15 00:49:04;;;;;;;10.80;4.20;;;6.60;99.90;;;;;;4962626;28;20046;-75
2022/01/15 00:51:29;;;;;;;13.07;4.40;;;6.60;99.90;;;;;;4965044;28;20105;-70
2022/01/15 00:53:55;;;;;;;11.07;4.37;;;6.60;99.90;;;;;;4964208;28;20503;-70
2022/01/15 00:56:21;;;;;;;13.90;5.00;;;6.60;99.90;;;;;;4962057;28;20531;-70
2022/01/15 00:58:46;;;;;;;10.55;4.47;;;6.60;99.90;;;;;;4967460;28;20486;-70
2022/01/15 01:01:12;;;;;;;12.93;4.93;;;6.60;99.90;;;;;;4968475;28;20066;-70
2022/01/15 01:03:38;;;;;;;12.87;4.63;;;6.60;99.90;;;;;;4970388;28;20073;-70
2022/01/15 01:06:03;;;;;;;12.73;4.53;;;6.60;99.90;;;;;;4964543;28;20035;-70
2022/01/15 01:08:29;;;;;;;20.60;5.33;;;6.60;99.90;;;;;;4963737;28;20467;-70
2022/01/15 01:10:57;;;;;;;13.90;4.80;;;6.60;99.90;;;;;;4971628;28;20317;-70
2022/01/15 01:24:20;;;;;;;15.65;4.60;;;6.60;99.90;;;;;;4966126;28;20477;-69
2022/01/15 01:32:03;;;;;;;15.05;4.50;;;6.60;99.90;;;;;;4966955;28;20058;-70
2022/01/15 01:34:31;;;;;;;15.40;4.38;;;6.60;99.90;;;;;;4965257;28;20042;-75
2022/01/15 01:37:08;;;;;;;17.67;5.13;;;6.60;99.90;;;;;;4967160;28;20404;-70
2022/01/15 01:39:47;;;;;;;13.60;4.15;;;6.60;99.90;;;;;;4967651;28;20492;-70
2022/01/15 01:45:01;;;;;;;6.70;2.55;;;6.60;99.90;;;;;;4970049;28;20503;-69
2022/01/15 01:47:40;;;;;;;4.72;2.08;;;6.60;99.90;;;;;;4965953;28;20125;-69
2022/01/15 01:50:07;;;;;;;4.95;2.05;;;6.60;99.90;;;;;;4965081;28;20047;-69
2022/01/15 01:52:33;;;;;;;6.28;2.13;;;6.60;99.90;;;;;;4963530;28;20138;-69
2022/01/15 01:54:58;;;;;;;3.83;1.90;;;6.60;99.90;;;;;;4958879;28;20134;-69
2022/01/15 01:57:24;;;;;;;3.90;1.53;;;6.70;99.90;;;;;;4957381;28;20788;-69
2022/01/15 01:59:50;;;;;;;3.27;1.90;;;6.60;99.90;;;;;;4957415;28;20039;-69
2022/01/15 02:02:15;;;;;;;4.63;1.87;;;6.60;99.90;;;;;;4958204;28;20047;-73
2022/01/15 02:04:41;;;;;;;4.93;1.90;;;6.60;99.90;;;;;;4952739;28;20041;-70
2022/01/15 02:07:09;;;;;;;4.00;2.00;;;6.50;99.90;;;;;;4958965;28;20027;-69
2022/01/15 02:09:35;;;;;;;3.67;2.00;;;6.50;99.90;;;;;;4967538;28;20046;-70
2022/01/15 02:12:01;;;;;;;4.22;2.25;;;6.50;99.90;;;;;;4979892;28;20039;-69
2022/01/15 02:14:28;;;;;;;3.67;1.87;;;6.60;99.90;;;;;;4957195;28;20043;-70
2022/01/15 02:16:54;;;;;;;4.43;2.10;;;6.50;99.90;;;;;;4962739;28;20050;-70
2022/01/15 02:19:20;;;;;;;4.25;2.20;;;6.50;99.90;;;;;;4963763;28;20122;-70
2022/01/15 02:24:17;;;;;;;4.57;2.35;;;6.50;99.90;;;;;;4965532;28;20046;-69
2022/01/15 02:26:42;;;;;;;4.00;2.20;;;6.50;99.90;;;;;;4959842;28;20042;-74
2022/01/15 02:29:09;;;;;;;3.47;1.73;;;6.50;99.90;;;;;;4964633;28;20056;-68
2022/01/15 02:31:35;;;;;;;5.55;2.40;;;6.50;99.90;;;;;;4962263;28;20066;-69
2022/01/15 02:34:02;;;;;;;;;;;6.50;99.90;;;;;;4958171;28;20503;-69
2022/01/15 02:36:30;;;;;;;5.80;2.05;;;6.50;99.90;;;;;;4967229;28;19972;-70
2022/01/15 02:38:56;;;;;;;3.45;1.88;;;6.50;99.90;;;;;;4963752;28;20089;-70
2022/01/15 02:41:35;;;;;;;3.25;1.67;;;6.50;99.90;;;;;;4963415;28;20043;-70
2022/01/15 02:44:05;;;;;;;3.72;1.95;;;6.50;99.90;;;;;;4962552;28;20034;-70
2022/01/15 02:49:03;;;;;;;4.07;2.00;;;6.50;99.90;;;;;;4958111;28;20047;-70
2022/01/15 02:51:31;;;;;;;3.58;1.77;;;6.50;99.90;;;;;;4959072;28;20043;-69
2022/01/15 02:54:00;;;;;;;3.65;1.90;;;6.40;99.90;;;;;;4958267;28;20073;-69
2022/01/15 02:56:36;;;;;;;3.95;1.80;;;6.40;99.90;;;;;;4966430;28;20041;-69
2022/01/15 02:59:04;;;;;;;3.78;2.03;;;6.40;99.90;;;;;;4962171;28;20089;-70
2022/01/15 03:01:31;;;;;;;4.85;2.60;;;6.40;99.90;;;;;;4966003;28;20111;-70
2022/01/15 03:03:56;;;;;;;;;;;6.40;99.90;;;;;;4963662;28;20035;-69
2022/01/15 03:06:22;;;;;;;5.35;2.05;;;6.40;99.90;;;;;;4964988;28;19929;-69
2022/01/15 03:08:50;;;;;;;3.67;1.90;;;6.40;99.90;;;;;;4964376;28;20050;-70
2022/01/15 03:11:16;;;;;;;4.10;1.90;;;6.40;99.90;;;;;;4965330;28;20591;-70
2022/01/15 03:13:43;;;;;;;4.15;2.40;;;6.40;99.90;;;;;;4962297;28;20050;-70
2022/01/15 03:16:12;;;;;;;4.88;2.33;;;6.40;99.90;;;;;;4961299;28;20042;-70
2022/01/15 03:18:37;;;;;;;4.13;2.10;;;6.40;99.90;;;;;;4956537;28;20050;-69
2022/01/15 03:21:04;;;;;;;4.43;2.17;;;6.40;99.90;;;;;;4961912;28;20408;-70
2022/01/15 03:23:30;;;;;;;5.13;2.60;;;6.40;99.90;;;;;;4961347;28;20110;-69
2022/01/15 03:25:55;;;;;;;5.18;2.20;;;6.40;99.90;;;;;;4955002;28;20157;-70
2022/01/15 03:28:21;;;;;;;4.90;2.37;;;6.40;99.90;;;;;;4963359;28;20118;-69
2022/01/15 03:30:47;;;;;;;3.97;2.20;;;6.40;99.90;;;;;;4962700;28;20094;-70
2022/01/15 03:33:13;;;;;;;5.03;2.20;;;6.40;99.90;;;;;;4967839;28;20159;-70
2022/01/15 03:35:38;;;;;;;3.47;1.77;;;6.40;99.90;;;;;;4961399;28;20336;-70
2022/01/15 03:38:05;;;;;;;4.22;2.30;;;6.40;99.90;;;;;;4964300;28;20042;-69
2022/01/15 03:40:31;;;;;;;;;;;6.40;99.90;;;;;;4955970;28;20683;-70
2022/01/15 03:42:58;;;;;;;4.38;2.10;;;6.40;99.90;;;;;;4967454;28;20303;-70
2022/01/15 03:45:23;;;;;;;3.03;1.67;;;6.30;99.90;;;;;;4965749;28;20081;-70
2022/01/15 03:47:49;;;;;;;4.40;2.10;;;6.40;99.90;;;;;;4966512;28;20031;-70
2022/01/15 03:50:16;;;;;;;3.27;1.53;;;6.30;99.90;;;;;;4963782;28;20316;-70
2022/01/15 03:52:42;;;;;;;;;;;6.30;99.90;;;;;;4966426;28;20039;-69
2022/01/15 03:55:09;;;;;;;3.83;1.50;;;6.30;99.90;;;;;;4967891;28;19941;-69
2022/01/15 03:57:36;;;;;;;4.72;2.03;;;6.30;99.90;;;;;;4975719;28;20542;-69
2022/01/15 04:00:08;;;;;;;4.85;1.98;;;6.30;99.90;;;;;;4963201;28;20085;-70
2022/01/15 04:02:34;;;;;;;4.93;2.10;;;6.30;99.90;;;;;;4969974;28;20038;-70
2022/01/15 04:05:00;;;;;;;3.90;1.77;;;6.30;99.90;;;;;;4964703;28;20035;-69
2022/01/15 04:07:25;;;;;;;4.13;1.87;;;6.30;99.90;;;;;;4962434;28;20572;-69
2022/01/15 04:09:51;;;;;;;4.80;2.23;;;6.30;99.90;;;;;;4969397;28;20671;-70
2022/01/15 04:12:16;;;;;;;4.87;1.93;;;6.30;99.90;;;;;;4970498;28;20109;-70
2022/01/15 04:14:42;;;;;;;5.10;1.80;;;6.30;99.90;;;;;;4969070;28;20051;-69
2022/01/15 04:17:07;;;;;;;4.10;1.77;;;6.30;99.90;;;;;;4965594;28;20035;-70
2022/01/15 04:19:35;;;;;;;4.50;1.73;;;6.30;99.90;;;;;;4968094;28;20058;-70
2022/01/15 04:22:00;;;;;;;3.70;1.88;;;6.30;99.90;;;;;;4967002;28;20043;-69
2022/01/15 04:24:26;;;;;;;5.80;2.30;;;6.30;99.90;;;;;;4964256;28;20034;-69
2022/01/15 04:26:52;;;;;;;5.43;2.30;;;6.30;99.90;;;;;;4968511;28;20395;-69
2022/01/15 04:29:17;;;;;;;3.27;1.53;;;6.30;99.90;;;;;;4965574;28;20432;-70
2022/01/15 04:31:49;;;;;;;3.10;1.33;;;6.30;99.90;;;;;;4967168;28;20046;-69
2022/01/15 04:34:25;;;;;;;2.65;1.20;;;6.30;99.90;;;;;;4967711;28;20422;-69
2022/01/15 04:36:53;;;;;;;2.92;1.55;;;6.30;99.90;;;;;;4963845;28;20489;-69
2022/01/15 04:39:19;;;;;;;2.63;1.15;;;6.30;99.90;;;;;;4963722;28;20058;-70
2022/01/15 04:41:45;;;;;;;2.67;1.10;;;6.20;99.90;;;;;;4965122;28;20050;-70
2022/01/15 04:44:11;;;;;;;3.70;1.35;;;6.20;99.90;;;;;;4971366;28;20109;-70
2022/01/15 04:46:38;;;;;;;2.55;1.13;;;6.20;99.90;;;;;;4959296;28;20118;-69
2022/01/15 04:49:04;;;;;;;2.35;1.27;;;6.20;99.90;;;;;;4957629;28;20050;-69
2022/01/15 04:51:31;;;;;;;4.38;1.20;;;6.20;99.90;;;;;;4966013;28;20061;-69
2022/01/15 04:53:56;;;;;;;2.47;1.20;;;6.20;99.90;;;;;;4958957;28;20050;-69
2022/01/15 04:56:22;;;;;;;2.83;1.37;;;6.20;99.90;;;;;;4972470;28;20166;-69
2022/01/15 04:58:48;;;;;;;4.13;1.50;;;6.20;99.90;;;;;;4965537;28;20094;-70
2022/01/15 05:01:14;;;;;;;1.80;0.90;;;6.20;99.90;;;;;;4965845;28;20043;-69
2022/01/15 05:03:40;;;;;;;3.07;1.20;;;6.20;99.90;;;;;;4967315;28;20049;-70
2022/01/15 05:06:05;;;;;;;2.17;0.93;;;6.20;99.90;;;;;;4967830;28;20047;-70
2022/01/15 05:08:32;;;;;;;2.10;1.07;;;6.20;99.90;;;;;;4966630;28;20125;-70
2022/01/15 05:10:59;;;;;;;1.92;0.77;;;6.20;99.90;;;;;;4962409;28;20054;-69
2022/01/15 05:13:29;;;;;;;2.20;0.80;;;6.10;99.90;;;;;;4971262;28;20061;-69
2022/01/15 05:15:55;;;;;;;1.63;0.75;;;6.10;99.90;;;;;;4965669;28;20475;-70
2022/01/15 05:18:21;;;;;;;1.25;0.63;;;6.10;99.90;;;;;;4965828;28;20121;-70
2022/01/15 05:20:47;;;;;;;3.67;0.90;;;6.10;99.90;;;;;;4968354;28;20123;-70
2022/01/15 05:23:13;;;;;;;1.63;0.70;;;6.10;99.90;;;;;;4965473;28;20043;-69
2022/01/15 05:25:39;;;;;;;1.97;0.77;;;6.10;99.90;;;;;;4969177;28;20297;-69
2022/01/15 05:28:06;;;;;;;1.88;0.80;;;6.10;99.90;;;;;;4959673;28;20054;-69
2022/01/15 05:30:33;;;;;;;2.72;0.93;;;6.10;99.90;;;;;;4953092;28;20549;-69
2022/01/15 05:32:58;;;;;;;2.58;1.02;;;6.10;99.90;;;;;;4963745;28;20046;-69
2022/01/15 05:35:27;;;;;;;2.47;1.13;;;6.10;99.90;;;;;;4958171;28;20055;-68
2022/01/15 05:37:55;;;;;;;2.55;1.13;;;6.10;99.90;;;;;;4962699;28;20385;-69
2022/01/15 05:40:21;;;;;;;2.45;1.00;;;6.10;99.90;;;;;;4968017;28;20068;-68
2022/01/15 05:42:47;;;;;;;1.70;0.63;;;6.00;99.90;;;;;;4987880;23;20521;-85
2022/01/15 05:45:13;;;;;;;1.40;0.80;;;6.00;99.90;;;;;;4952266;28;20463;-85
2022/01/15 05:47:39;;;;;;;2.17;0.93;;;6.00;99.90;;;;;;4956384;28;20047;-84
2022/01/15 05:50:06;;;;;;;2.13;0.95;;;6.00;99.90;;;;;;4952573;28;20130;-85
2022/01/15 05:52:31;;;;;;;1.58;0.70;;;6.00;99.90;;;;;;4944598;28;20056;-84
2022/01/15 05:54:57;;;;;;;1.30;0.67;;;5.90;99.90;;;;;;4920833;29;20054;-84
2022/01/15 05:57:22;;;;;;;1.60;0.60;;;5.90;99.90;;;;;;4939577;29;20036;-84
2022/01/15 05:59:51;;;;;;;;;;;5.90;99.90;;;;;;4955389;28;20059;-85
2022/01/15 06:02:21;;;;;;;2.80;0.90;;;5.90;99.90;;;;;;4937013;29;19982;-84
2022/01/15 06:04:47;;;;;;;1.80;0.80;;;5.90;99.90;;;;;;4936853;29;20055;-84
2022/01/15 06:07:13;;;;;;;2.78;0.98;;;5.90;99.90;;;;;;4925753;29;20107;-84
2022/01/15 06:09:39;;;;;;;2.93;1.20;;;5.90;99.90;;;;;;4942387;29;20051;-84
2022/01/15 06:12:05;;;;;;;2.60;1.20;;;5.90;99.90;;;;;;4941061;29;20574;-82
2022/01/15 06:14:31;;;;;;;2.65;0.90;;;5.90;99.90;;;;;;4932848;29;20032;-84
2022/01/15 06:16:58;;;;;;;3.13;1.57;;;5.90;99.90;;;;;;4918012;29;20046;-84
2022/01/15 06:19:24;;;;;;;3.13;1.23;;;5.90;99.90;;;;;;4920595;29;20512;-84
2022/01/15 06:21:49;;;;;;;2.00;0.88;;;5.90;99.90;;;;;;4935936;29;20126;-84
2022/01/15 06:24:15;;;;;;;3.40;1.07;;;5.80;99.90;;;;;;4920434;29;20122;-85
2022/01/15 06:26:41;;;;;;;2.10;1.00;;;5.80;99.90;;;;;;4919843;29;20039;-85
2022/01/15 06:29:06;;;;;;;2.40;1.10;;;5.80;99.90;;;;;;4919680;29;20621;-84
2022/01/15 06:31:32;;;;;;;4.13;1.20;;;5.80;99.90;;;;;;4937191;29;20043;-84
2022/01/15 06:34:01;;;;;;;2.47;1.10;;;5.80;99.90;;;;;;4937511;29;20099;-84
2022/01/15 06:36:27;;;;;;;2.53;1.27;;;5.80;99.90;;;;;;4923630;29;20063;-84
2022/01/15 06:38:53;;;;;;;2.80;1.25;;;5.70;99.90;;;;;;4930914;29;20046;-82
2022/01/15 06:41:19;;;;;;;2.63;1.48;;;5.80;99.90;;;;;;4922792;29;20043;-84
2022/01/15 06:43:44;;;;;;;2.70;1.35;;;5.80;99.90;;;;;;4937130;29;20039;-84
2022/01/15 06:46:10;;;;;;;3.90;1.20;;;5.80;99.90;;;;;;4940286;29;20064;-83
2022/01/15 06:48:36;;;;;;;2.20;1.33;;;5.70;99.90;;;;;;4930472;29;20046;-84
2022/01/15 06:51:02;;;;;;;2.23;1.00;;;5.80;99.90;;;;;;4934311;29;20040;-84
2022/01/15 06:53:29;;;;;;;2.60;1.33;;;5.70;99.90;;;;;;4917896;29;20111;-85
2022/01/15 06:55:54;;;;;;;3.45;1.60;;;5.80;99.90;;;;;;4937214;29;20042;-84
2022/01/15 06:58:20;;;;;;;2.83;1.40;;;5.80;99.90;;;;;;4916230;29;20052;-84
2022/01/15 07:00:49;;;;;;;3.30;1.60;;;5.80;99.90;;;;;;4933299;29;20042;-83
2022/01/15 07:03:14;;;;;;;3.88;1.83;;;5.80;99.90;;;;;;4930040;29;20570;-84
2022/01/15 07:05:40;;;;;;;3.40;1.57;;;5.70;99.90;;;;;;4916732;29;20150;-83
2022/01/15 07:08:06;;;;;;;3.60;1.60;;;5.70;99.90;;;;;;4927377;29;20098;-84
2022/01/15 07:10:31;;;;;;;3.17;1.37;;;5.70;99.90;;;;;;4951111;28;20134;-84
2022/01/15 07:12:57;;;;;;;4.20;2.10;;;5.70;99.90;;;;;;4936112;29;20043;-84
2022/01/15 07:15:23;;;;;;;3.13;1.30;;;5.80;99.90;;;;;;4916251;29;20097;-83
2022/01/15 07:17:49;;;;;;;3.60;1.80;;;5.70;99.90;;;;;;4913699;29;20055;-84
2022/01/15 07:20:17;;;;;;;3.38;1.35;;;5.70;99.90;;;;;;4916686;29;20050;-83
2022/01/15 07:22:43;;;;;;;3.00;1.20;;;5.70;99.90;;;;;;4922545;29;20043;-83
2022/01/15 07:25:10;;;;;;;3.43;1.30;;;5.70;99.90;;;;;;4931501;29;21218;-83
2022/01/15 07:27:39;;;;;;;4.88;1.55;;;5.70;99.90;;;;;;4933914;29;20071;-85
2022/01/15 07:30:09;;;;;;;3.53;1.30;;;5.70;99.90;;;;;;4931079;29;20127;-84
2022/01/15 07:32:35;;;;;;;4.00;1.55;;;5.70;99.90;;;;;;4930852;29;20047;-84
2022/01/15 07:35:02;;;;;;;5.38;2.03;;;5.70;99.90;;;;;;4931300;29;20409;-84
2022/01/15 07:37:28;;;;;;;4.18;1.75;;;5.70;99.90;;;;;;4921136;29;20040;-85
2022/01/15 07:39:54;;;;;;;;;;;5.70;99.90;;;;;;4932522;29;20043;-84
2022/01/15 07:42:20;;;;;;;4.35;1.83;;;5.70;99.90;;;;;;4935884;29;20174;-84
2022/01/15 07:44:45;;;;;;;5.03;1.98;;;5.70;99.90;;;;;;4925350;29;20051;-84
2022/01/15 07:47:12;;;;;;;4.50;2.00;;;5.70;99.90;;;;;;4937651;29;20052;-84
2022/01/15 07:49:38;;;;;;;4.47;2.00;;;5.70;99.90;;;;;;4931947;29;20044;-84
2022/01/15 07:52:03;;;;;;;4.75;2.70;;;5.70;99.90;;;;;;4934982;29;20040;-84
2022/01/15 07:54:29;;;;;;;3.87;1.87;;;5.60;99.90;;;;;;4924071;29;20040;-80
2022/01/15 07:56:58;;;;;;;5.63;1.90;;;5.60;99.90;;;;;;4937675;29;20130;-84
2022/01/15 07:59:28;;;;;;;4.00;1.73;;;5.60;99.90;;;;;;4945439;28;20036;-82
2022/01/15 08:01:54;;;;;;;4.55;1.92;;;5.60;99.90;;;;;;4915738;29;20032;-85
2022/01/15 08:04:20;;;;;;;3.60;1.77;;;5.60;99.90;;;;;;4935567;29;20286;-84
2022/01/15 08:06:45;;;;;;;3.90;1.40;;;5.50;99.90;;;;;;4928762;29;20151;-85
2022/01/15 08:09:11;;;;;;;4.53;2.17;;;5.60;99.90;;;;;;4932926;29;20031;-84
2022/01/15 08:11:37;;;;;;;4.20;2.30;;;5.60;99.90;;;;;;4917330;29;20044;-84
2022/01/15 08:14:05;;;;;;;4.18;1.63;;;5.60;99.90;;;;;;4919244;29;20051;-84
2022/01/15 08:16:31;;;;;;;4.03;1.85;;;5.50;99.90;;;;;;4914093;29;20052;-86
2022/01/15 08:18:57;;;;;;;4.23;1.70;;;5.60;99.90;;;;;;4947847;29;20044;-85
2022/01/15 08:21:22;;;;;;;3.37;1.30;;;5.60;99.90;;;;;;4931463;29;20047;-85
2022/01/15 08:23:48;;;;;;;4.43;1.90;;;5.50;99.90;;;;;;4919517;29;20052;-85
2022/01/15 08:26:13;;;;;;;6.03;1.70;;;5.50;99.90;;;;;;4927527;29;20038;-85
2022/01/15 08:28:39;;;;;;;4.80;1.70;;;5.60;99.90;;;;;;4933205;29;20564;-85
2022/01/15 08:31:08;;;;;;;4.03;1.83;;;5.50;99.90;;;;;;4930127;29;20039;-83
2022/01/15 08:33:33;;;;;;;5.35;1.85;;;5.50;99.90;;;;;;4923475;29;20043;-84
2022/01/15 08:35:59;;;;;;;3.77;1.60;;;5.60;99.90;;;;;;4928029;29;20447;-84
2022/01/15 08:38:28;;;;;;;4.67;1.90;;;5.60;99.90;;;;;;4932720;29;20044;-84
2022/01/15 08:40:54;;;;;;;4.00;1.90;;;5.60;99.90;;;;;;4935676;29;20172;-84
2022/01/15 08:43:20;;;;;;;5.10;2.20;;;5.50;99.90;;;;;;4935196;29;20494;-84
2022/01/15 08:45:46;;;;;;;5.30;2.92;;;5.60;99.90;;;;;;4933489;29;20048;-85
2022/01/15 08:48:12;;;;;;;;;;;5.60;99.90;;;;;;4928760;29;20119;-86
2022/01/15 08:50:40;;;;;;;5.00;2.53;;;5.60;99.90;;;;;;4930389;29;20205;-85
2022/01/15 08:53:06;;;;;;;4.07;2.15;;;5.50;99.90;;;;;;4928206;29;20050;-85
2022/01/15 08:55:33;;;;;;;5.90;2.50;;;5.60;99.90;;;;;;4931847;29;20044;-84
2022/01/15 08:57:59;;;;;;;5.93;2.58;;;5.60;99.90;;;;;;4919216;29;20303;-86
2022/01/15 09:00:27;;;;;;;5.60;3.00;;;5.60;99.90;;;;;;4932393;29;20046;-85
2022/01/15 09:02:54;;;;;;;4.88;2.67;;;5.60;99.90;;;;;;4932855;29;20224;-87
2022/01/15 09:05:19;;;;;;;6.93;3.10;;;5.60;99.90;;;;;;4930041;29;20032;-89
2022/01/15 09:07:56;;;;;;;;;;;;;;;;;;;;;
2022/01/15 09:10:30;;;;;;;5.15;2.13;;;5.50;99.90;;;;;;4918198;29;21645;-87
2022/01/15 09:12:56;;;;;;;4.97;2.35;;;5.50;99.90;;;;;;4929611;29;20040;-88
2022/01/15 09:15:30;;;;;;;6.18;3.20;;;5.50;99.90;;;;;;4920027;29;20039;-86
2022/01/15 09:17:55;;;;;;;6.38;3.30;;;5.50;99.90;;;;;;4928957;29;20473;-86
2022/01/15 09:20:21;;;;;;;7.90;2.67;;;5.50;99.90;;;;;;4912544;29;20071;-85
2022/01/15 09:22:47;;;;;;;4.87;2.57;;;5.50;99.90;;;;;;4929618;29;20047;-85
2022/01/15 09:25:17;;;;;;;6.70;3.20;;;5.50;99.90;;;;;;4928626;29;20139;-88
2022/01/15 09:30:27;;;;;;;7.43;3.60;;;5.50;99.90;;;;;;4923786;29;20051;-86
2022/01/15 09:32:56;;;;;;;6.30;3.13;;;5.50;99.90;;;;;;4922427;29;20048;-86
2022/01/15 09:35:24;;;;;;;6.00;2.97;;;5.50;99.90;;;;;;4912547;29;20044;-85
2022/01/15 09:37:53;;;;;;;7.82;3.08;;;5.60;99.90;;;;;;4920088;29;20047;-86
2022/01/15 09:40:21;;;;;;;6.95;3.17;;;5.50;99.90;;;;;;4912838;29;20066;-85
2022/01/15 09:42:49;;;;;;;7.10;3.30;;;5.60;99.90;;;;;;4911138;29;20086;-84
2022/01/15 09:45:16;;;;;;;7.63;3.55;;;5.60;99.90;;;;;;4932974;29;20439;-87
2022/01/15 09:47:42;;;;;;;8.15;3.88;;;5.60;99.90;;;;;;4931390;29;20412;-87
2022/01/15 09:50:12;;;;;;;10.02;3.88;;;5.60;99.90;;;;;;4922906;29;20078;-86
2022/01/15 09:52:37;;;;;;;7.38;3.55;;;5.60;99.90;;;;;;4914049;29;20123;-85
2022/01/15 09:55:09;;;;;;;7.03;3.03;;;5.70;99.90;;;;;;4918808;29;20122;-84
2022/01/15 09:57:36;;;;;;;6.10;2.95;;;5.60;99.90;;;;;;4931377;29;20047;-85
2022/01/15 10:00:07;;;;;;;6.25;3.13;;;5.60;99.90;;;;;;4925317;29;20048;-85
2022/01/15 10:02:33;;;;;;;7.28;2.67;;;5.60;99.90;;;;;;4929576;29;20078;-86
2022/01/15 10:04:59;;;;;;;7.70;3.20;;;5.50;99.90;;;;;;4929967;29;20040;-86
2022/01/15 10:07:27;;;;;;;6.73;3.30;;;5.60;99.90;;;;;;4926038;29;20632;-86
2022/01/15 10:09:55;;;;;;;6.78;3.03;;;5.60;99.90;;;;;;4929408;29;20044;-87
2022/01/15 10:12:31;;;;;;;6.80;2.78;;;5.50;99.90;;;;;;4926090;29;20036;-86
2022/01/15 10:15:05;;;;;;;8.60;3.90;;;5.50;99.90;;;;;;4913165;29;20039;-86
2022/01/15 10:17:33;;;;;;;7.45;3.47;;;5.50;99.90;;;;;;4923984;29;20048;-86
2022/01/15 10:20:08;;;;;;;10.50;4.28;;;5.50;99.90;;;;;;4929130;29;20047;-86
2022/01/15 10:22:34;;;;;;;8.23;3.88;;;5.50;99.90;;;;;;4932253;29;20055;-86
2022/01/15 10:25:07;;;;;;;8.05;3.78;;;5.50;99.90;;;;;;4909578;29;20493;-87
2022/01/15 10:27:43;;;;;;;9.80;3.60;;;5.50;99.90;;;;;;4925652;29;20425;-85
2022/01/15 10:30:18;;;;;;;9.00;3.60;;;5.50;99.90;;;;;;4910969;29;20051;-86
2022/01/15 10:33:05;;;;;;;7.40;3.58;;;5.50;99.90;;;;;;4911650;29;20122;-86
2022/01/15 10:35:40;;;;;;;8.43;4.03;;;5.50;99.90;;;;;;4942728;28;20047;-87
2022/01/15 10:38:13;;;;;;;10.10;4.40;;;5.50;99.90;;;;;;4930166;29;20035;-84
2022/01/15 10:40:41;;;;;;;9.38;4.40;;;5.50;99.90;;;;;;4922101;29;20285;-88
2022/01/15 10:43:08;;;;;;;9.80;4.13;;;5.60;99.90;;;;;;4927399;29;20235;-87
2022/01/15 10:45:35;;;;;;;8.88;3.97;;;5.50;99.90;;;;;;4927957;29;20039;-86
2022/01/15 10:48:03;;;;;;;12.82;5.38;;;5.50;99.90;;;;;;4938651;28;20118;-87
2022/01/15 10:50:32;;;;;;;11.55;4.93;;;5.50;99.90;;;;;;4914610;29;20047;-86
2022/01/15 10:53:04;;;;;;;11.05;4.70;;;5.50;99.90;;;;;;4928026;29;20039;-86
2022/01/15 10:55:31;;;;;;;13.57;5.32;;;5.60;99.90;;;;;;4923923;29;20091;-88
2022/01/15 10:57:58;;;;;;;11.93;5.55;;;5.60;99.90;;;;;;4943642;28;20521;-87
2022/01/15 11:00:24;;;;;;;11.43;5.05;;;5.50;99.90;;;;;;4922331;29;20094;-86
2022/01/15 11:02:58;;;;;;;11.17;4.83;;;5.50;99.90;;;;;;4924578;29;20044;-85
2022/01/15 11:05:26;;;;;;;13.70;4.78;;;5.50;99.90;;;;;;4926268;29;20067;-87
2022/01/15 11:07:53;;;;;;;9.77;4.60;;;5.50;99.90;;;;;;4926977;29;20086;-85
2022/01/15 11:10:19;;;;;;;13.10;5.45;;;5.50;99.90;;;;;;4923914;29;20071;-86
2022/01/15 11:12:45;;;;;;;12.67;5.50;;;5.50;99.90;;;;;;4924654;29;20063;-86
2022/01/15 11:15:49;;;;;;;10.97;5.03;;;5.50;99.90;;;;;;4927247;29;20044;-88
2022/01/15 11:18:23;;;;;;;10.88;5.07;;;5.50;99.90;;;;;;4933070;29;20043;-87
2022/01/15 11:20:52;;;;;;;11.27;5.25;;;5.50;99.90;;;;;;4933570;29;20047;-86
2022/01/15 11:23:26;;;;;;;14.90;6.22;;;5.50;99.90;;;;;;4934530;29;20176;-87
2022/01/15 11:25:58;;;;;;;16.67;6.93;;;5.50;99.90;;;;;;4933435;29;20040;-86
2022/01/15 11:28:27;;;;;;;10.43;5.68;;;5.50;99.90;;;;;;4928163;29;20032;-86
2022/01/15 11:31:00;;;;;;;12.82;6.07;;;5.60;99.90;;;;;;4927603;29;20530;-86
2022/01/15 11:33:30;;;;;;;12.27;5.97;;;5.50;99.90;;;;;;4931066;29;20043;-86
2022/01/15 11:35:56;;;;;;;12.80;6.57;;;5.50;99.90;;;;;;4931468;29;20051;-87
2022/01/15 11:38:43;;;;;;;13.23;5.85;;;5.60;99.90;;;;;;4950955;28;20134;-85
2022/01/15 11:41:27;;;;;;;14.77;6.82;;;5.60;99.90;;;;;;4927878;29;20047;-89
2022/01/15 11:44:25;;;;;;;17.50;6.82;;;5.60;99.90;;;;;;4984753;23;20411;-66
2022/01/15 11:46:55;;;;;;;14.02;6.72;;;5.50;99.90;;;;;;4964769;28;20057;-65
2022/01/15 11:49:23;;;;;;;17.63;7.03;;;5.60;99.90;;;;;;4939075;28;20043;-66
2022/01/15 11:51:53;;;;;;;15.20;6.47;;;5.60;99.90;;;;;;4938734;28;20047;-66
2022/01/15 11:54:19;;;;;;;14.05;6.32;;;5.60;99.90;;;;;;4938124;28;20106;-67
2022/01/15 11:56:46;;;;;;;14.90;6.20;;;5.60;99.90;;;;;;4942534;28;20225;-66
2022/01/15 11:59:27;;;;;;;14.55;7.38;;;5.50;99.90;;;;;;4937173;28;20047;-66
2022/01/15 12:01:57;;;;;;;18.98;6.93;;;5.50;99.90;;;;;;4943066;28;20046;-66
2022/01/15 12:04:22;;;;;;;15.23;7.50;;;5.50;99.90;;;;;;4941816;28;20086;-67
2022/01/15 12:07:00;;;;;;;14.90;6.37;;;5.50;99.90;;;;;;4953391;28;20477;-66
2022/01/15 12:09:46;;;;;;;11.80;5.43;;;5.50;99.90;;;;;;4936863;28;20508;-66
2022/01/15 12:12:18;;;;;;;11.48;5.97;;;5.50;99.90;;;;;;4938936;28;20072;-66
2022/01/15 12:14:58;;;;;;;15.13;6.70;;;5.50;99.90;;;;;;4943902;28;20334;-66
2022/01/15 12:17:35;;;;;;;14.20;6.35;;;5.50;99.90;;;;;;4938415;28;20306;-66
2022/01/15 12:20:07;;;;;;;12.85;5.75;;;5.50;99.90;;;;;;4939284;28;20455;-65
2022/01/15 12:22:42;;;;;;;10.00;5.40;;;5.40;99.90;;;;;;4958550;28;20070;-66
2022/01/15 12:25:17;;;;;;;9.48;5.00;;;5.40;99.90;;;;;;4942334;28;20040;-67
2022/01/15 12:28:10;;;;;;;11.95;5.68;;;5.40;99.90;;;;;;4930022;28;20035;-66
2022/01/15 12:30:42;;;;;;;13.38;6.32;;;5.40;99.90;;;;;;4936973;28;20051;-66
2022/01/15 12:33:11;;;;;;;10.27;5.40;;;5.40;99.90;;;;;;4941732;28;20144;-66
2022/01/15 12:35:39;;;;;;;12.10;6.13;;;5.40;99.90;;;;;;4945394;28;20046;-65
2022/01/15 12:38:15;;;;;;;11.02;5.40;;;5.40;99.90;;;;;;4936411;28;20673;-65
2022/01/15 12:40:43;;;;;;;12.57;6.22;;;5.40;99.90;;;;;;4940893;28;20074;-67
2022/01/15 12:43:14;;;;;;;12.63;6.47;;;5.40;99.90;;;;;;4943499;28;20396;-66
2022/01/15 12:45:40;;;;;;;10.02;5.78;;;5.50;99.90;;;;;;4932640;28;20298;-65
2022/01/15 12:48:09;;;;;;;11.80;6.57;;;5.50;99.90;;;;;;4941351;28;20039;-65
2022/01/15 12:50:48;;;;;;;14.90;7.35;;;5.50;99.90;;;;;;4940692;28;20486;-65
2022/01/15 12:53:15;;;;;;;15.13;7.25;;;5.50;99.90;;;;;;4939856;28;20050;-65
2022/01/15 12:55:41;;;;;;;17.05;8.02;;;5.60;99.90;;;;;;4950314;28;20062;-64
2022/01/15 12:58:09;;;;;;;17.05;8.02;;;5.50;99.90;;;;;;4940519;28;20050;-67
2022/01/15 13:00:37;;;;;;;15.50;6.63;;;5.50;99.90;;;;;;4944964;29;20067;-69
2022/01/15 13:03:07;;;;;;;14.88;7.70;;;5.60;99.90;;;;;;4941107;28;20039;-66
2022/01/15 13:05:35;;;;;;;14.38;6.68;;;5.50;99.90;;;;;;4946923;28;20097;-66
2022/01/15 13:08:04;;;;;;;10.68;6.20;;;5.50;99.90;;;;;;4945191;28;20381;-72
2022/01/15 13:10:36;;;;;;;11.88;7.30;;;5.50;99.90;;;;;;4945682;29;20098;-68
2022/01/15 13:13:05;;;;;;;13.63;7.57;;;5.40;99.90;;;;;;4937320;28;20051;-68
2022/01/15 13:15:31;;;;;;;14.13;7.20;;;5.40;99.90;;;;;;4943836;28;20304;-66
2022/01/15 13:17:59;;;;;;;15.73;7.90;;;5.40;99.90;;;;;;4937356;28;20480;-67
2022/01/15 13:20:34;;;;;;;15.25;6.90;;;5.40;99.90;;;;;;4941494;28;20962;-67
2022/01/15 13:23:02;;;;;;;15.90;7.50;;;5.40;99.90;;;;;;4944363;28;20749;-66
2022/01/15 13:25:29;;;;;;;15.80;7.97;;;5.30;99.90;;;;;;4946070;28;20054;-66
2022/01/15 13:27:56;;;;;;;16.83;8.07;;;5.30;99.90;;;;;;4943320;28;20048;-71
2022/01/15 13:30:22;;;;;;;16.05;8.38;;;5.30;99.90;;;;;;4946722;28;20119;-66